sensor_id;sensor_type;location;lat;lon;timestamp;temperature;humidity
418;DHT22;49;48.530;9.200;2022-07-29T00:02:18;26.20;42.60
418;DHT22;49;48.530;9.200;2022-07-29T00:04:56;26.00;48.30
418;DHT22;49;48.530;9.200;2022-07-29T00:07:47;25.90;46.30
418;DHT22;49;48.530;9.200;2022-07-29T00:10:17;25.80;45.60
418;DHT22;49;48.530;9.200;2022-07-29T00:12:44;25.50;49.40
418;DHT22;49;48.530;9.200;2022-07-29T00:15:18;25.30;52.00
418;DHT22;49;48.530;9.200;2022-07-29T00:17:51;25.10;50.70
418;DHT22;49;48.530;9.200;2022-07-29T00:20:27;24.80;50.20
418;DHT22;49;48.530;9.200;2022-07-29T00:23:02;25.00;49.10
418;DHT22;49;48.530;9.200;2022-07-29T00:25:39;25.10;50.50
418;DHT22;49;48.530;9.200;2022-07-29T00:28:18;25.20;50.60
418;DHT22;49;48.530;9.200;2022-07-29T00:30:56;25.40;43.70
418;DHT22;49;48.530;9.200;2022-07-29T00:33:23;25.50;44.30
418;DHT22;49;48.530;9.200;2022-07-29T00:35:54;25.30;51.20
418;DHT22;49;48.530;9.200;2022-07-29T00:38:20;25.30;50.40
418;DHT22;49;48.530;9.200;2022-07-29T00:40:48;25.30;46.90
418;DHT22;49;48.530;9.200;2022-07-29T00:43:16;25.20;49.10
418;DHT22;49;48.530;9.200;2022-07-29T00:45:47;25.30;49.30
418;DHT22;49;48.530;9.200;2022-07-29T00:48:14;25.40;47.70
418;DHT22;49;48.530;9.200;2022-07-29T00:51:02;25.40;46.40
418;DHT22;49;48.530;9.200;2022-07-29T00:53:30;25.50;43.60
418;DHT22;49;48.530;9.200;2022-07-29T00:55:58;25.40;45.40
418;DHT22;49;48.530;9.200;2022-07-29T00:58:26;25.40;45.30
418;DHT22;49;48.530;9.200;2022-07-29T01:00:54;25.30;45.00
418;DHT22;49;48.530;9.200;2022-07-29T01:03:21;25.30;45.40
418;DHT22;49;48.530;9.200;2022-07-29T01:05:49;25.20;47.30
418;DHT22;49;48.530;9.200;2022-07-29T01:08:22;25.20;47.60
418;DHT22;49;48.530;9.200;2022-07-29T01:10:54;25.10;47.60
418;DHT22;49;48.530;9.200;2022-07-29T01:13:22;25.30;42.80
418;DHT22;49;48.530;9.200;2022-07-29T01:15:56;25.40;45.40
418;DHT22;49;48.530;9.200;2022-07-29T01:18:28;25.50;42.60
418;DHT22;49;48.530;9.200;2022-07-29T01:21:27;25.60;41.60
418;DHT22;49;48.530;9.200;2022-07-29T01:24:14;25.70;40.50
418;DHT22;49;48.530;9.200;2022-07-29T01:26:49;25.80;40.00
418;DHT22;49;48.530;9.200;2022-07-29T01:29:23;25.90;39.60
418;DHT22;49;48.530;9.200;2022-07-29T01:31:56;25.90;40.50
418;DHT22;49;48.530;9.200;2022-07-29T01:34:29;25.90;41.50
418;DHT22;49;48.530;9.200;2022-07-29T01:37:15;25.60;42.10
418;DHT22;49;48.530;9.200;2022-07-29T01:39:46;25.30;45.50
418;DHT22;49;48.530;9.200;2022-07-29T01:42:19;25.10;45.60
418;DHT22;49;48.530;9.200;2022-07-29T01:44:53;25.20;44.00
418;DHT22;49;48.530;9.200;2022-07-29T01:47:26;25.20;45.30
418;DHT22;49;48.530;9.200;2022-07-29T01:49:56;25.10;44.00
418;DHT22;49;48.530;9.200;2022-07-29T01:52:31;25.20;43.60
418;DHT22;49;48.530;9.200;2022-07-29T01:55:06;25.20;44.20
418;DHT22;49;48.530;9.200;2022-07-29T01:57:36;25.20;41.90
418;DHT22;49;48.530;9.200;2022-07-29T02:00:08;25.50;41.40
418;DHT22;49;48.530;9.200;2022-07-29T02:02:38;25.50;42.00
418;DHT22;49;48.530;9.200;2022-07-29T02:05:08;25.10;43.80
418;DHT22;49;48.530;9.200;2022-07-29T02:07:41;25.10;44.00
418;DHT22;49;48.530;9.200;2022-07-29T02:10:11;25.30;41.80
418;DHT22;49;48.530;9.200;2022-07-29T02:12:40;25.30;41.50
418;DHT22;49;48.530;9.200;2022-07-29T02:15:29;25.40;42.00
418;DHT22;49;48.530;9.200;2022-07-29T02:18:01;25.50;40.40
418;DHT22;49;48.530;9.200;2022-07-29T02:20:30;25.60;40.00
418;DHT22;49;48.530;9.200;2022-07-29T02:22:59;25.70;39.90
418;DHT22;49;48.530;9.200;2022-07-29T02:25:28;25.80;39.50
418;DHT22;49;48.530;9.200;2022-07-29T02:27:56;25.90;38.90
418;DHT22;49;48.530;9.200;2022-07-29T02:30:29;25.80;39.30
418;DHT22;49;48.530;9.200;2022-07-29T02:32:57;25.80;38.80
418;DHT22;49;48.530;9.200;2022-07-29T02:35:26;25.80;40.00
418;DHT22;49;48.530;9.200;2022-07-29T02:37:54;25.70;40.60
418;DHT22;49;48.530;9.200;2022-07-29T02:40:40;25.40;42.50
418;DHT22;49;48.530;9.200;2022-07-29T02:43:10;25.10;43.40
418;DHT22;49;48.530;9.200;2022-07-29T02:45:39;25.10;41.90
418;DHT22;49;48.530;9.200;2022-07-29T02:48:09;25.20;41.90
418;DHT22;49;48.530;9.200;2022-07-29T02:50:46;25.20;41.90
418;DHT22;49;48.530;9.200;2022-07-29T02:53:18;25.30;43.20
418;DHT22;49;48.530;9.200;2022-07-29T02:55:48;25.30;42.90
418;DHT22;49;48.530;9.200;2022-07-29T02:58:23;25.40;40.80
418;DHT22;49;48.530;9.200;2022-07-29T03:00:56;25.40;40.40
418;DHT22;49;48.530;9.200;2022-07-29T03:03:25;25.50;42.10
418;DHT22;49;48.530;9.200;2022-07-29T03:05:55;25.50;41.30
418;DHT22;49;48.530;9.200;2022-07-29T03:08:24;25.40;41.30
418;DHT22;49;48.530;9.200;2022-07-29T03:10:51;25.30;42.00
418;DHT22;49;48.530;9.200;2022-07-29T03:13:19;25.00;41.90
418;DHT22;49;48.530;9.200;2022-07-29T03:15:47;25.20;41.70
418;DHT22;49;48.530;9.200;2022-07-29T03:18:16;25.30;41.10
418;DHT22;49;48.530;9.200;2022-07-29T03:20:43;25.20;44.10
418;DHT22;49;48.530;9.200;2022-07-29T03:23:11;24.80;46.20
418;DHT22;49;48.530;9.200;2022-07-29T03:25:38;24.50;47.70
418;DHT22;49;48.530;9.200;2022-07-29T03:28:05;24.50;47.40
418;DHT22;49;48.530;9.200;2022-07-29T03:30:32;24.50;48.30
418;DHT22;49;48.530;9.200;2022-07-29T03:32:59;24.30;47.90
418;DHT22;49;48.530;9.200;2022-07-29T03:35:28;24.10;49.90
418;DHT22;49;48.530;9.200;2022-07-29T03:37:57;23.70;52.30
418;DHT22;49;48.530;9.200;2022-07-29T03:40:27;23.30;55.20
418;DHT22;49;48.530;9.200;2022-07-29T03:42:57;23.30;56.30
418;DHT22;49;48.530;9.200;2022-07-29T03:45:26;23.10;57.20
418;DHT22;49;48.530;9.200;2022-07-29T03:48:00;22.90;59.80
418;DHT22;49;48.530;9.200;2022-07-29T03:50:30;23.10;59.30
418;DHT22;49;48.530;9.200;2022-07-29T03:53:00;22.90;63.90
418;DHT22;49;48.530;9.200;2022-07-29T03:55:28;22.90;66.10
418;DHT22;49;48.530;9.200;2022-07-29T03:57:57;23.00;64.30
418;DHT22;49;48.530;9.200;2022-07-29T04:00:27;23.10;64.30
418;DHT22;49;48.530;9.200;2022-07-29T04:02:54;22.90;65.90
418;DHT22;49;48.530;9.200;2022-07-29T04:05:21;23.20;64.90
418;DHT22;49;48.530;9.200;2022-07-29T04:07:49;23.60;64.30
418;DHT22;49;48.530;9.200;2022-07-29T04:10:17;23.50;64.20
418;DHT22;49;48.530;9.200;2022-07-29T04:12:45;23.40;65.30
418;DHT22;49;48.530;9.200;2022-07-29T04:15:12;23.50;61.90
418;DHT22;49;48.530;9.200;2022-07-29T04:17:39;23.80;62.10
418;DHT22;49;48.530;9.200;2022-07-29T04:20:07;23.90;58.60
418;DHT22;49;48.530;9.200;2022-07-29T04:22:34;24.10;59.60
418;DHT22;49;48.530;9.200;2022-07-29T04:25:03;24.40;55.30
418;DHT22;49;48.530;9.200;2022-07-29T04:27:31;24.60;54.10
418;DHT22;49;48.530;9.200;2022-07-29T04:29:58;24.70;53.00
418;DHT22;49;48.530;9.200;2022-07-29T04:32:25;24.80;52.00
418;DHT22;49;48.530;9.200;2022-07-29T04:34:52;24.80;50.20
418;DHT22;49;48.530;9.200;2022-07-29T04:37:19;24.80;50.30
418;DHT22;49;48.530;9.200;2022-07-29T04:39:46;25.00;49.30
418;DHT22;49;48.530;9.200;2022-07-29T04:42:15;24.90;50.10
418;DHT22;49;48.530;9.200;2022-07-29T04:44:41;24.90;49.30
418;DHT22;49;48.530;9.200;2022-07-29T04:47:09;24.90;49.50
418;DHT22;49;48.530;9.200;2022-07-29T04:49:38;24.90;49.30
418;DHT22;49;48.530;9.200;2022-07-29T04:52:05;25.00;48.70
418;DHT22;49;48.530;9.200;2022-07-29T04:54:32;25.00;49.10
418;DHT22;49;48.530;9.200;2022-07-29T04:56:59;25.00;48.50
418;DHT22;49;48.530;9.200;2022-07-29T04:59:28;25.00;51.30
418;DHT22;49;48.530;9.200;2022-07-29T05:01:55;24.70;50.30
418;DHT22;49;48.530;9.200;2022-07-29T05:04:22;24.90;48.50
418;DHT22;49;48.530;9.200;2022-07-29T05:06:48;24.90;50.40
418;DHT22;49;48.530;9.200;2022-07-29T05:09:15;25.10;48.60
418;DHT22;49;48.530;9.200;2022-07-29T05:11:42;25.10;48.50
418;DHT22;49;48.530;9.200;2022-07-29T05:14:09;25.00;50.70
418;DHT22;49;48.530;9.200;2022-07-29T05:16:38;25.10;51.40
418;DHT22;49;48.530;9.200;2022-07-29T05:19:06;25.30;50.60
418;DHT22;49;48.530;9.200;2022-07-29T05:21:33;25.40;49.60
418;DHT22;49;48.530;9.200;2022-07-29T05:24:00;25.60;50.50
418;DHT22;49;48.530;9.200;2022-07-29T05:26:27;25.90;48.90
418;DHT22;49;48.530;9.200;2022-07-29T05:28:54;26.00;47.60
418;DHT22;49;48.530;9.200;2022-07-29T05:31:21;25.70;49.90
418;DHT22;49;48.530;9.200;2022-07-29T05:33:50;25.60;49.50
418;DHT22;49;48.530;9.200;2022-07-29T05:36:17;25.90;47.10
418;DHT22;49;48.530;9.200;2022-07-29T05:38:44;26.10;47.00
418;DHT22;49;48.530;9.200;2022-07-29T05:41:11;26.30;46.30
418;DHT22;49;48.530;9.200;2022-07-29T05:43:38;26.80;55.90
418;DHT22;49;48.530;9.200;2022-07-29T05:46:05;27.70;51.50
418;DHT22;49;48.530;9.200;2022-07-29T05:48:32;29.20;46.50
418;DHT22;49;48.530;9.200;2022-07-29T05:51:00;30.40;40.20
418;DHT22;49;48.530;9.200;2022-07-29T05:53:27;31.30;34.10
418;DHT22;49;48.530;9.200;2022-07-29T05:55:54;32.10;31.10
418;DHT22;49;48.530;9.200;2022-07-29T05:58:22;33.10;28.50
418;DHT22;49;48.530;9.200;2022-07-29T06:00:49;33.20;26.90
418;DHT22;49;48.530;9.200;2022-07-29T06:03:15;33.20;28.60
418;DHT22;49;48.530;9.200;2022-07-29T06:05:42;33.60;26.10
418;DHT22;49;48.530;9.200;2022-07-29T06:08:11;33.90;25.90
418;DHT22;49;48.530;9.200;2022-07-29T06:10:38;34.30;23.50
418;DHT22;49;48.530;9.200;2022-07-29T06:13:05;34.60;22.70
418;DHT22;49;48.530;9.200;2022-07-29T06:15:32;34.20;23.60
418;DHT22;49;48.530;9.200;2022-07-29T06:17:59;33.90;25.10
418;DHT22;49;48.530;9.200;2022-07-29T06:20:25;34.00;25.20
418;DHT22;49;48.530;9.200;2022-07-29T06:22:55;34.40;24.60
418;DHT22;49;48.530;9.200;2022-07-29T06:25:23;35.00;23.50
418;DHT22;49;48.530;9.200;2022-07-29T06:27:50;35.40;20.90
418;DHT22;49;48.530;9.200;2022-07-29T06:30:17;35.00;21.20
418;DHT22;49;48.530;9.200;2022-07-29T06:32:45;34.40;22.50
418;DHT22;49;48.530;9.200;2022-07-29T06:35:12;34.00;23.20
418;DHT22;49;48.530;9.200;2022-07-29T06:37:39;34.20;23.40
418;DHT22;49;48.530;9.200;2022-07-29T06:40:06;34.70;22.80
418;DHT22;49;48.530;9.200;2022-07-29T06:42:52;35.00;23.10
418;DHT22;49;48.530;9.200;2022-07-29T06:45:19;35.50;21.00
418;DHT22;49;48.530;9.200;2022-07-29T06:47:46;35.70;21.10
418;DHT22;49;48.530;9.200;2022-07-29T06:50:14;36.30;19.60
418;DHT22;49;48.530;9.200;2022-07-29T06:52:41;36.90;19.50
418;DHT22;49;48.530;9.200;2022-07-29T06:55:08;37.40;18.30
418;DHT22;49;48.530;9.200;2022-07-29T06:57:35;37.60;19.30
418;DHT22;49;48.530;9.200;2022-07-29T07:00:05;37.70;17.50
418;DHT22;49;48.530;9.200;2022-07-29T07:02:32;38.00;17.70
418;DHT22;49;48.530;9.200;2022-07-29T07:04:59;37.80;19.30
418;DHT22;49;48.530;9.200;2022-07-29T07:07:25;38.10;17.80
418;DHT22;49;48.530;9.200;2022-07-29T07:09:52;38.40;17.30
418;DHT22;49;48.530;9.200;2022-07-29T07:12:19;37.90;17.60
418;DHT22;49;48.530;9.200;2022-07-29T07:14:46;37.90;17.60
418;DHT22;49;48.530;9.200;2022-07-29T07:17:15;38.30;17.70
418;DHT22;49;48.530;9.200;2022-07-29T07:19:42;38.30;16.70
418;DHT22;49;48.530;9.200;2022-07-29T07:22:08;37.80;16.40
418;DHT22;49;48.530;9.200;2022-07-29T07:24:35;36.60;17.80
418;DHT22;49;48.530;9.200;2022-07-29T07:27:02;35.00;20.00
418;DHT22;49;48.530;9.200;2022-07-29T07:29:29;34.00;22.30
418;DHT22;49;48.530;9.200;2022-07-29T07:31:57;34.00;23.40
418;DHT22;49;48.530;9.200;2022-07-29T07:34:25;34.40;22.90
418;DHT22;49;48.530;9.200;2022-07-29T07:36:52;34.90;21.30
418;DHT22;49;48.530;9.200;2022-07-29T07:39:19;35.70;20.10
418;DHT22;49;48.530;9.200;2022-07-29T07:41:46;36.30;19.70
418;DHT22;49;48.530;9.200;2022-07-29T07:44:13;37.30;18.80
418;DHT22;49;48.530;9.200;2022-07-29T07:46:40;38.00;17.10
418;DHT22;49;48.530;9.200;2022-07-29T07:49:07;37.80;17.50
418;DHT22;49;48.530;9.200;2022-07-29T07:51:35;37.70;18.00
418;DHT22;49;48.530;9.200;2022-07-29T07:54:02;37.80;16.80
418;DHT22;49;48.530;9.200;2022-07-29T07:56:29;38.00;17.10
418;DHT22;49;48.530;9.200;2022-07-29T07:58:56;38.30;16.20
418;DHT22;49;48.530;9.200;2022-07-29T08:01:23;38.50;16.40
418;DHT22;49;48.530;9.200;2022-07-29T08:03:50;38.80;15.10
418;DHT22;49;48.530;9.200;2022-07-29T08:06:17;39.20;15.70
418;DHT22;49;48.530;9.200;2022-07-29T08:08:45;38.80;15.30
418;DHT22;49;48.530;9.200;2022-07-29T08:11:12;38.80;15.00
418;DHT22;49;48.530;9.200;2022-07-29T08:13:40;38.90;15.30
418;DHT22;49;48.530;9.200;2022-07-29T08:16:07;39.00;14.50
418;DHT22;49;48.530;9.200;2022-07-29T08:18:41;38.60;15.00
418;DHT22;49;48.530;9.200;2022-07-29T08:21:09;38.20;15.50
418;DHT22;49;48.530;9.200;2022-07-29T08:23:36;38.50;15.40
418;DHT22;49;48.530;9.200;2022-07-29T08:26:07;38.80;14.90
418;DHT22;49;48.530;9.200;2022-07-29T08:28:36;38.80;15.10
418;DHT22;49;48.530;9.200;2022-07-29T08:31:03;38.40;15.10
418;DHT22;49;48.530;9.200;2022-07-29T08:33:30;38.70;14.30
418;DHT22;49;48.530;9.200;2022-07-29T08:35:57;38.90;14.00
418;DHT22;49;48.530;9.200;2022-07-29T08:38:24;38.80;13.60
418;DHT22;49;48.530;9.200;2022-07-29T08:40:52;38.70;14.40
418;DHT22;49;48.530;9.200;2022-07-29T08:43:21;38.60;14.10
418;DHT22;49;48.530;9.200;2022-07-29T08:45:50;38.30;14.00
418;DHT22;49;48.530;9.200;2022-07-29T08:48:19;38.20;13.90
418;DHT22;49;48.530;9.200;2022-07-29T08:50:48;37.80;14.50
418;DHT22;49;48.530;9.200;2022-07-29T08:53:17;37.60;15.10
418;DHT22;49;48.530;9.200;2022-07-29T08:55:45;36.80;15.60
418;DHT22;49;48.530;9.200;2022-07-29T08:58:16;36.20;16.70
418;DHT22;49;48.530;9.200;2022-07-29T09:00:46;36.20;17.00
418;DHT22;49;48.530;9.200;2022-07-29T09:03:18;36.30;15.10
418;DHT22;49;48.530;9.200;2022-07-29T09:05:46;36.30;15.80
418;DHT22;49;48.530;9.200;2022-07-29T09:08:14;36.30;15.60
418;DHT22;49;48.530;9.200;2022-07-29T09:10:41;36.00;15.80
418;DHT22;49;48.530;9.200;2022-07-29T09:13:08;35.90;15.90
418;DHT22;49;48.530;9.200;2022-07-29T09:15:36;35.90;16.30
418;DHT22;49;48.530;9.200;2022-07-29T09:18:07;35.80;16.00
418;DHT22;49;48.530;9.200;2022-07-29T09:20:34;35.60;16.20
418;DHT22;49;48.530;9.200;2022-07-29T09:23:14;35.60;16.60
418;DHT22;49;48.530;9.200;2022-07-29T09:25:42;34.70;17.80
418;DHT22;49;48.530;9.200;2022-07-29T09:28:15;34.80;17.40
418;DHT22;49;48.530;9.200;2022-07-29T09:30:50;35.00;15.80
418;DHT22;49;48.530;9.200;2022-07-29T09:33:31;34.90;16.90
418;DHT22;49;48.530;9.200;2022-07-29T09:36:02;34.70;18.10
418;DHT22;49;48.530;9.200;2022-07-29T09:38:30;34.40;18.20
418;DHT22;49;48.530;9.200;2022-07-29T09:41:00;35.00;18.00
418;DHT22;49;48.530;9.200;2022-07-29T09:43:28;35.10;17.60
418;DHT22;49;48.530;9.200;2022-07-29T09:45:56;35.00;17.80
418;DHT22;49;48.530;9.200;2022-07-29T09:48:36;34.50;18.90
418;DHT22;49;48.530;9.200;2022-07-29T09:51:05;33.50;19.60
418;DHT22;49;48.530;9.200;2022-07-29T09:53:34;33.70;19.40
418;DHT22;49;48.530;9.200;2022-07-29T09:56:02;33.90;19.30
418;DHT22;49;48.530;9.200;2022-07-29T09:58:30;34.10;20.20
418;DHT22;49;48.530;9.200;2022-07-29T10:00:59;34.10;19.70
418;DHT22;49;48.530;9.200;2022-07-29T10:03:26;34.40;18.80
418;DHT22;49;48.530;9.200;2022-07-29T10:06:09;34.60;18.70
418;DHT22;49;48.530;9.200;2022-07-29T10:08:39;35.20;18.40
418;DHT22;49;48.530;9.200;2022-07-29T10:11:12;35.40;17.50
418;DHT22;49;48.530;9.200;2022-07-29T10:13:56;35.70;17.00
418;DHT22;49;48.530;9.200;2022-07-29T10:16:26;34.80;17.40
418;DHT22;49;48.530;9.200;2022-07-29T10:18:58;34.40;18.40
418;DHT22;49;48.530;9.200;2022-07-29T10:21:28;34.10;18.00
418;DHT22;49;48.530;9.200;2022-07-29T10:23:57;33.80;18.60
418;DHT22;49;48.530;9.200;2022-07-29T10:26:25;34.20;18.00
418;DHT22;49;48.530;9.200;2022-07-29T10:28:52;34.60;17.40
418;DHT22;49;48.530;9.200;2022-07-29T10:31:29;35.00;17.00
418;DHT22;49;48.530;9.200;2022-07-29T10:34:04;34.70;17.60
418;DHT22;49;48.530;9.200;2022-07-29T10:36:47;34.80;17.10
418;DHT22;49;48.530;9.200;2022-07-29T10:39:29;34.80;16.40
418;DHT22;49;48.530;9.200;2022-07-29T10:42:13;34.50;16.90
418;DHT22;49;48.530;9.200;2022-07-29T10:44:45;34.40;17.40
418;DHT22;49;48.530;9.200;2022-07-29T10:47:20;34.60;17.10
418;DHT22;49;48.530;9.200;2022-07-29T10:49:58;34.70;17.20
418;DHT22;49;48.530;9.200;2022-07-29T10:52:55;34.40;17.40
418;DHT22;49;48.530;9.200;2022-07-29T10:55:33;34.00;17.10
418;DHT22;49;48.530;9.200;2022-07-29T10:58:20;34.20;16.80
418;DHT22;49;48.530;9.200;2022-07-29T11:00:49;34.60;16.00
418;DHT22;49;48.530;9.200;2022-07-29T11:03:42;34.60;16.30
418;DHT22;49;48.530;9.200;2022-07-29T11:06:09;34.80;15.30
418;DHT22;49;48.530;9.200;2022-07-29T11:08:38;35.00;15.40
418;DHT22;49;48.530;9.200;2022-07-29T11:11:35;35.20;15.10
418;DHT22;49;48.530;9.200;2022-07-29T11:14:12;35.10;15.10
418;DHT22;49;48.530;9.200;2022-07-29T11:17:06;34.90;15.30
418;DHT22;49;48.530;9.200;2022-07-29T11:19:34;35.10;15.10
418;DHT22;49;48.530;9.200;2022-07-29T11:22:02;35.20;14.50
418;DHT22;49;48.530;9.200;2022-07-29T11:24:31;35.30;15.10
418;DHT22;49;48.530;9.200;2022-07-29T11:27:19;35.40;15.30
418;DHT22;49;48.530;9.200;2022-07-29T11:29:52;34.80;15.90
418;DHT22;49;48.530;9.200;2022-07-29T11:32:21;34.50;15.80
418;DHT22;49;48.530;9.200;2022-07-29T11:35:11;34.70;15.90
418;DHT22;49;48.530;9.200;2022-07-29T11:37:40;33.90;17.90
418;DHT22;49;48.530;9.200;2022-07-29T11:40:16;33.00;19.60
418;DHT22;49;48.530;9.200;2022-07-29T11:42:51;32.50;20.10
418;DHT22;49;48.530;9.200;2022-07-29T11:45:25;32.70;19.90
418;DHT22;49;48.530;9.200;2022-07-29T11:47:58;32.70;19.50
418;DHT22;49;48.530;9.200;2022-07-29T11:50:31;32.30;19.70
418;DHT22;49;48.530;9.200;2022-07-29T11:53:02;32.00;19.10
418;DHT22;49;48.530;9.200;2022-07-29T11:55:30;31.90;20.20
418;DHT22;49;48.530;9.200;2022-07-29T11:58:01;31.20;22.00
418;DHT22;49;48.530;9.200;2022-07-29T12:00:31;30.70;23.10
418;DHT22;49;48.530;9.200;2022-07-29T12:03:01;30.30;24.40
418;DHT22;49;48.530;9.200;2022-07-29T12:05:35;29.30;25.80
418;DHT22;49;48.530;9.200;2022-07-29T12:08:10;27.90;30.10
418;DHT22;49;48.530;9.200;2022-07-29T12:10:38;27.70;32.10
418;DHT22;49;48.530;9.200;2022-07-29T12:13:07;28.00;31.30
418;DHT22;49;48.530;9.200;2022-07-29T12:15:35;27.50;32.90
418;DHT22;49;48.530;9.200;2022-07-29T12:18:16;27.60;33.20
418;DHT22;49;48.530;9.200;2022-07-29T12:20:44;27.30;33.00
418;DHT22;49;48.530;9.200;2022-07-29T12:23:15;27.10;33.00
418;DHT22;49;48.530;9.200;2022-07-29T12:25:43;26.70;31.90
418;DHT22;49;48.530;9.200;2022-07-29T12:28:12;26.60;31.80
418;DHT22;49;48.530;9.200;2022-07-29T12:30:43;26.60;31.90
418;DHT22;49;48.530;9.200;2022-07-29T12:33:17;26.50;32.50
418;DHT22;49;48.530;9.200;2022-07-29T12:35:46;26.80;32.50
418;DHT22;49;48.530;9.200;2022-07-29T12:38:16;27.30;30.60
418;DHT22;49;48.530;9.200;2022-07-29T12:40:45;27.10;31.10
418;DHT22;49;48.530;9.200;2022-07-29T12:43:17;27.20;33.50
418;DHT22;49;48.530;9.200;2022-07-29T12:45:47;27.80;31.90
418;DHT22;49;48.530;9.200;2022-07-29T12:48:16;27.90;31.50
418;DHT22;49;48.530;9.200;2022-07-29T12:50:55;27.80;30.00
418;DHT22;49;48.530;9.200;2022-07-29T12:53:25;28.20;29.20
418;DHT22;49;48.530;9.200;2022-07-29T12:55:56;28.50;29.40
418;DHT22;49;48.530;9.200;2022-07-29T12:58:32;28.80;28.40
418;DHT22;49;48.530;9.200;2022-07-29T13:01:07;28.90;28.30
418;DHT22;49;48.530;9.200;2022-07-29T13:03:47;28.90;27.80
418;DHT22;49;48.530;9.200;2022-07-29T13:06:38;29.10;27.10
418;DHT22;49;48.530;9.200;2022-07-29T13:09:09;28.60;27.70
418;DHT22;49;48.530;9.200;2022-07-29T13:11:39;28.90;27.70
418;DHT22;49;48.530;9.200;2022-07-29T13:14:07;29.30;25.60
418;DHT22;49;48.530;9.200;2022-07-29T13:16:36;29.50;26.20
418;DHT22;49;48.530;9.200;2022-07-29T13:19:05;29.90;25.00
418;DHT22;49;48.530;9.200;2022-07-29T13:21:33;30.00;24.60
418;DHT22;49;48.530;9.200;2022-07-29T13:24:01;29.70;25.20
418;DHT22;49;48.530;9.200;2022-07-29T13:26:29;29.90;24.80
418;DHT22;49;48.530;9.200;2022-07-29T13:28:57;30.10;24.20
418;DHT22;49;48.530;9.200;2022-07-29T13:31:24;29.90;24.50
418;DHT22;49;48.530;9.200;2022-07-29T13:33:52;30.00;25.10
418;DHT22;49;48.530;9.200;2022-07-29T13:36:19;29.30;30.10
418;DHT22;49;48.530;9.200;2022-07-29T13:38:46;28.50;34.30
418;DHT22;49;48.530;9.200;2022-07-29T13:41:13;27.20;37.60
418;DHT22;49;48.530;9.200;2022-07-29T13:43:43;27.10;41.30
418;DHT22;49;48.530;9.200;2022-07-29T13:46:12;27.30;35.10
418;DHT22;49;48.530;9.200;2022-07-29T13:48:39;26.80;37.80
418;DHT22;49;48.530;9.200;2022-07-29T13:51:07;26.90;40.40
418;DHT22;49;48.530;9.200;2022-07-29T13:53:51;27.10;40.10
418;DHT22;49;48.530;9.200;2022-07-29T13:56:20;27.10;39.00
418;DHT22;49;48.530;9.200;2022-07-29T14:01:39;28.10;36.50
418;DHT22;49;48.530;9.200;2022-07-29T14:04:10;28.50;36.70
418;DHT22;49;48.530;9.200;2022-07-29T14:06:37;28.60;36.20
418;DHT22;49;48.530;9.200;2022-07-29T14:09:11;28.60;34.60
418;DHT22;49;48.530;9.200;2022-07-29T14:11:38;28.70;34.20
418;DHT22;49;48.530;9.200;2022-07-29T14:14:12;28.90;35.50
418;DHT22;49;48.530;9.200;2022-07-29T14:16:48;28.80;34.50
418;DHT22;49;48.530;9.200;2022-07-29T14:19:17;28.90;32.60
418;DHT22;49;48.530;9.200;2022-07-29T14:21:57;28.80;32.80
418;DHT22;49;48.530;9.200;2022-07-29T14:24:24;28.80;33.60
418;DHT22;49;48.530;9.200;2022-07-29T14:26:51;28.80;33.50
418;DHT22;49;48.530;9.200;2022-07-29T14:29:25;29.00;33.00
418;DHT22;49;48.530;9.200;2022-07-29T14:31:53;28.90;36.30
418;DHT22;49;48.530;9.200;2022-07-29T14:34:44;29.00;35.80
418;DHT22;49;48.530;9.200;2022-07-29T14:37:14;29.10;37.60
418;DHT22;49;48.530;9.200;2022-07-29T14:39:47;29.10;34.50
418;DHT22;49;48.530;9.200;2022-07-29T14:42:24;28.60;34.50
418;DHT22;49;48.530;9.200;2022-07-29T14:44:54;28.60;36.60
418;DHT22;49;48.530;9.200;2022-07-29T14:47:23;28.60;37.10
418;DHT22;49;48.530;9.200;2022-07-29T14:49:59;28.70;38.00
418;DHT22;49;48.530;9.200;2022-07-29T14:52:30;28.90;34.70
418;DHT22;49;48.530;9.200;2022-07-29T14:54:58;28.80;33.90
418;DHT22;49;48.530;9.200;2022-07-29T14:57:29;29.10;34.50
418;DHT22;49;48.530;9.200;2022-07-29T14:59:58;29.30;31.90
418;DHT22;49;48.530;9.200;2022-07-29T15:02:27;29.60;33.80
418;DHT22;49;48.530;9.200;2022-07-29T15:04:54;29.70;31.40
418;DHT22;49;48.530;9.200;2022-07-29T15:07:21;29.90;30.10
418;DHT22;49;48.530;9.200;2022-07-29T15:09:48;30.10;30.20
418;DHT22;49;48.530;9.200;2022-07-29T15:12:15;30.20;29.80
418;DHT22;49;48.530;9.200;2022-07-29T15:14:43;30.30;28.90
418;DHT22;49;48.530;9.200;2022-07-29T15:17:12;30.10;30.20
418;DHT22;49;48.530;9.200;2022-07-29T15:19:39;30.10;31.70
418;DHT22;49;48.530;9.200;2022-07-29T15:22:06;30.30;30.30
418;DHT22;49;48.530;9.200;2022-07-29T15:24:33;30.30;30.40
418;DHT22;49;48.530;9.200;2022-07-29T15:27:00;30.40;28.40
418;DHT22;49;48.530;9.200;2022-07-29T15:29:27;30.50;28.20
418;DHT22;49;48.530;9.200;2022-07-29T15:31:54;30.60;28.70
418;DHT22;49;48.530;9.200;2022-07-29T15:34:23;30.50;28.70
418;DHT22;49;48.530;9.200;2022-07-29T15:36:50;30.50;28.10
418;DHT22;49;48.530;9.200;2022-07-29T15:39:17;30.60;27.80
418;DHT22;49;48.530;9.200;2022-07-29T15:41:45;30.60;27.70
418;DHT22;49;48.530;9.200;2022-07-29T15:44:12;30.80;28.50
418;DHT22;49;48.530;9.200;2022-07-29T15:46:40;30.70;27.30
418;DHT22;49;48.530;9.200;2022-07-29T15:49:25;30.60;27.90
418;DHT22;49;48.530;9.200;2022-07-29T15:51:57;30.50;27.70
418;DHT22;49;48.530;9.200;2022-07-29T15:54:25;30.70;27.90
418;DHT22;49;48.530;9.200;2022-07-29T15:57:00;30.80;27.70
418;DHT22;49;48.530;9.200;2022-07-29T15:59:27;30.80;27.30
418;DHT22;49;48.530;9.200;2022-07-29T16:01:55;30.70;27.60
418;DHT22;49;48.530;9.200;2022-07-29T16:04:26;30.80;26.90
418;DHT22;49;48.530;9.200;2022-07-29T16:07:02;31.00;27.30
418;DHT22;49;48.530;9.200;2022-07-29T16:09:31;31.00;27.30
418;DHT22;49;48.530;9.200;2022-07-29T16:11:58;30.90;26.80
418;DHT22;49;48.530;9.200;2022-07-29T16:14:29;30.80;26.80
418;DHT22;49;48.530;9.200;2022-07-29T16:16:59;31.10;28.30
418;DHT22;49;48.530;9.200;2022-07-29T16:19:29;31.10;27.10
418;DHT22;49;48.530;9.200;2022-07-29T16:21:56;31.20;27.80
418;DHT22;49;48.530;9.200;2022-07-29T16:24:27;31.10;27.80
418;DHT22;49;48.530;9.200;2022-07-29T16:26:56;31.30;27.00
418;DHT22;49;48.530;9.200;2022-07-29T16:29:23;31.20;27.30
418;DHT22;49;48.530;9.200;2022-07-29T16:31:53;30.80;27.20
418;DHT22;49;48.530;9.200;2022-07-29T16:34:22;30.80;27.70
418;DHT22;49;48.530;9.200;2022-07-29T16:36:55;30.80;27.90
418;DHT22;49;48.530;9.200;2022-07-29T16:39:23;30.90;27.40
418;DHT22;49;48.530;9.200;2022-07-29T16:41:50;30.80;28.90
418;DHT22;49;48.530;9.200;2022-07-29T16:44:17;30.80;28.20
418;DHT22;49;48.530;9.200;2022-07-29T16:46:46;30.80;27.90
418;DHT22;49;48.530;9.200;2022-07-29T16:49:14;30.80;28.30
418;DHT22;49;48.530;9.200;2022-07-29T16:51:46;31.00;29.40
418;DHT22;49;48.530;9.200;2022-07-29T16:54:17;31.00;30.80
418;DHT22;49;48.530;9.200;2022-07-29T16:56:44;31.10;29.00
418;DHT22;49;48.530;9.200;2022-07-29T16:59:11;31.00;28.90
418;DHT22;49;48.530;9.200;2022-07-29T17:01:38;31.00;28.30
418;DHT22;49;48.530;9.200;2022-07-29T17:04:05;30.90;27.20
418;DHT22;49;48.530;9.200;2022-07-29T17:06:32;31.00;27.30
418;DHT22;49;48.530;9.200;2022-07-29T17:09:00;31.10;26.70
418;DHT22;49;48.530;9.200;2022-07-29T17:11:29;31.00;27.40
418;DHT22;49;48.530;9.200;2022-07-29T17:13:57;31.00;29.50
418;DHT22;49;48.530;9.200;2022-07-29T17:16:24;31.00;30.80